createdAt,value
2023-01-20T00:02:01.354Z,100667.22
2023-01-20T00:04:29.251Z,100664.75
2023-01-20T00:06:57.220Z,100665.09
2023-01-20T00:09:26.514Z,100663.53
2023-01-20T00:11:54.365Z,100660.19
2023-01-20T00:14:22.328Z,100657.63
2023-01-20T00:16:50.297Z,100634.69
2023-01-20T00:19:19.358Z,100668.56
2023-01-20T00:21:47.351Z,100562.19
2023-01-20T00:24:15.557Z,100675.28
2023-01-20T00:26:44.803Z,100674.16
2023-01-20T00:29:12.966Z,100677.38
2023-01-20T00:31:41.070Z,100682.16
2023-01-20T00:34:10.958Z,100635.53
2023-01-20T00:36:38.995Z,100596.78
2023-01-20T00:39:07.148Z,100653.97
2023-01-20T00:41:35.108Z,100685.72
2023-01-20T00:44:04.477Z,100677.78
2023-01-20T00:46:32.459Z,100685.47
2023-01-20T00:49:00.440Z,100686.81
2023-01-20T00:51:28.613Z,100694.50
2023-01-20T00:53:56.573Z,100694.28
2023-01-20T00:56:24.468Z,100702.75
2023-01-20T00:58:52.502Z,100702.53
2023-01-20T01:01:22.180Z,100662.16
2023-01-20T01:03:51.077Z,100708.56
2023-01-20T01:06:19.212Z,100665.50
2023-01-20T01:08:47.225Z,100670.06
2023-01-20T01:11:15.235Z,100700.16
2023-01-20T01:13:43.620Z,100724.06
2023-01-20T01:16:13.802Z,100727.31
2023-01-20T01:18:43.963Z,100728.19
2023-01-20T01:21:14.230Z,100722.16
2023-01-20T01:23:42.606Z,100732.56
2023-01-20T01:26:11.224Z,100729.22
2023-01-20T01:28:39.430Z,100709.75
2023-01-20T01:31:08.786Z,100737.97
2023-01-20T01:33:37.000Z,100727.22
2023-01-20T01:36:08.647Z,100752.31
2023-01-20T01:38:36.735Z,100750.97
2023-01-20T01:41:04.727Z,100726.38
2023-01-20T01:43:35.185Z,100747.63
2023-01-20T01:46:03.401Z,100728.84
2023-01-20T01:48:35.124Z,100746.72
2023-01-20T01:51:05.822Z,100710.16
2023-01-20T01:53:41.035Z,100743.28
2023-01-20T01:56:10.272Z,100744.72
2023-01-20T01:58:42.059Z,100739.09
2023-01-20T02:01:10.000Z,100752.06
2023-01-20T02:03:44.364Z,100741.75
2023-01-20T02:06:13.668Z,100744.44
2023-01-20T02:08:43.527Z,100755.84
2023-01-20T02:11:11.461Z,100755.59
2023-01-20T02:13:40.078Z,100758.41
2023-01-20T02:16:16.140Z,100752.38
2023-01-20T02:19:08.063Z,100766.09
2023-01-20T02:22:08.519Z,100765.09
2023-01-20T02:25:16.908Z,100769.22
2023-01-20T02:28:35.404Z,100765.63
2023-01-20T02:31:33.135Z,100765.50
2023-01-20T02:34:05.899Z,100764.63
2023-01-20T02:36:41.321Z,100762.72
2023-01-20T02:39:27.539Z,100728.91
2023-01-20T02:42:00.915Z,100773.88
2023-01-20T02:44:35.386Z,100771.44
2023-01-20T02:47:11.014Z,100776.81
2023-01-20T02:49:44.183Z,100775.00
2023-01-20T02:52:17.058Z,100775.91
2023-01-20T02:54:50.551Z,100776.13
2023-01-20T02:57:29.609Z,100788.31
2023-01-20T03:00:03.713Z,100777.16
2023-01-20T03:02:35.268Z,100788.91
2023-01-20T03:05:08.692Z,100789.16
2023-01-20T03:07:38.932Z,100796.19
2023-01-20T03:10:10.928Z,100803.25
2023-01-20T03:12:43.538Z,100801.81
2023-01-20T03:15:12.940Z,100802.16
2023-01-20T03:17:41.435Z,100807.53
2023-01-20T03:20:12.370Z,100793.44
2023-01-20T03:22:40.522Z,100760.53
2023-01-20T03:25:10.728Z,100802.63
2023-01-20T03:27:38.696Z,100809.56
2023-01-20T03:30:13.205Z,100813.81
2023-01-20T03:32:42.954Z,100814.47
2023-01-20T03:35:14.057Z,100816.03
2023-01-20T03:37:42.711Z,100820.38
2023-01-20T03:40:12.245Z,100814.78
2023-01-20T03:42:52.775Z,100825.16
2023-01-20T03:45:31.583Z,100832.63
2023-01-20T03:48:06.750Z,100836.53
2023-01-20T03:50:42.036Z,100817.22
2023-01-20T03:53:23.346Z,100835.94
2023-01-20T03:55:56.164Z,100836.59
2023-01-20T03:58:29.021Z,100832.88
2023-01-20T04:00:58.751Z,100828.03
2023-01-20T04:03:30.999Z,100844.47
2023-01-20T04:06:03.859Z,100850.38
2023-01-20T04:08:36.754Z,100843.44
2023-01-20T04:11:07.570Z,100852.03
2023-01-20T04:13:36.138Z,100851.16
2023-01-20T04:16:10.306Z,100830.91
2023-01-20T04:18:42.296Z,100849.59
2023-01-20T04:21:17.902Z,100847.28
2023-01-20T04:23:50.924Z,100850.72
2023-01-20T04:26:18.961Z,100826.66
2023-01-20T04:28:46.945Z,100846.75
2023-01-20T04:31:29.246Z,100835.75
2023-01-20T04:33:58.433Z,100860.34
2023-01-20T04:36:43.416Z,100855.09
2023-01-20T04:39:11.454Z,100866.88
2023-01-20T04:41:39.380Z,100864.41
2023-01-20T04:44:07.418Z,100715.88
2023-01-20T04:46:36.893Z,100870.41
2023-01-20T04:49:05.095Z,100850.16
2023-01-20T04:51:33.766Z,100877.03
2023-01-20T04:54:03.438Z,100883.19
2023-01-20T04:56:31.306Z,100880.72
2023-01-20T04:58:59.476Z,100882.41
2023-01-20T05:01:27.841Z,100885.75
2023-01-20T05:03:55.781Z,100892.56
2023-01-20T05:06:23.653Z,100895.13
2023-01-20T05:08:51.678Z,100890.78
2023-01-20T05:11:20.874Z,100894.91
2023-01-20T05:13:48.725Z,100903.63
2023-01-20T05:16:21.991Z,100883.91
2023-01-20T05:18:49.889Z,100901.28
2023-01-20T05:21:17.736Z,100914.38
2023-01-20T05:23:45.660Z,100893.47
2023-01-20T05:26:13.553Z,100907.03
2023-01-20T05:28:44.200Z,100908.94
2023-01-20T05:31:12.244Z,100917.66
2023-01-20T05:33:40.205Z,100865.38
2023-01-20T05:36:09.509Z,100893.16
2023-01-20T05:38:37.871Z,100857.06
2023-01-20T05:41:08.114Z,100911.88
2023-01-20T05:43:36.451Z,100917.13
2023-01-20T05:46:06.278Z,100918.91
2023-01-20T05:48:34.494Z,100932.78
2023-01-20T05:51:02.463Z,100934.56
2023-01-20T05:53:30.426Z,100931.22
2023-01-20T05:56:02.061Z,100898.06
2023-01-20T05:58:31.282Z,100929.44
2023-01-20T06:01:07.402Z,100939.41
2023-01-20T06:03:35.809Z,100939.53
2023-01-20T06:06:04.559Z,100940.31
2023-01-20T06:08:32.421Z,100947.91
2023-01-20T06:11:00.862Z,100951.25
2023-01-20T06:13:28.799Z,100962.31
2023-01-20T06:15:57.084Z,100957.94
2023-01-20T06:18:26.565Z,100902.00
2023-01-20T06:20:57.942Z,100970.03
2023-01-20T06:23:26.401Z,100967.47
2023-01-20T06:26:00.339Z,100967.69
2023-01-20T06:28:28.680Z,100967.81
2023-01-20T06:31:04.302Z,100918.63
2023-01-20T06:33:34.484Z,100961.53
2023-01-20T06:36:02.595Z,100977.56
2023-01-20T06:38:32.662Z,100981.16
2023-01-20T06:41:02.094Z,100965.91
2023-01-20T06:43:31.150Z,100981.81
2023-01-20T06:46:02.712Z,100991.00
2023-01-20T06:48:31.199Z,100955.38
2023-01-20T06:51:04.658Z,101012.53
2023-01-20T06:53:32.632Z,101013.69
2023-01-20T06:56:01.895Z,101019.06
2023-01-20T06:58:32.424Z,101020.06
2023-01-20T07:01:06.873Z,101020.44
2023-01-20T07:03:34.943Z,100997.22
2023-01-20T07:06:05.892Z,101029.75
2023-01-20T07:08:33.782Z,101035.91
2023-01-20T07:11:01.811Z,101032.56
2023-01-20T07:13:29.649Z,101035.81
2023-01-20T07:15:57.537Z,101045.56
2023-01-20T07:18:25.558Z,101017.50
2023-01-20T07:20:55.230Z,101053.38
2023-01-20T07:23:25.138Z,101058.78
2023-01-20T07:25:59.207Z,101031.63
2023-01-20T07:28:27.315Z,101070.97
2023-01-20T07:30:55.688Z,101078.94
2023-01-20T07:33:23.742Z,101079.94
2023-01-20T07:35:55.214Z,101068.41
2023-01-20T07:38:24.841Z,101017.38
2023-01-20T07:40:52.714Z,101068.16
2023-01-20T07:43:20.524Z,101055.13
2023-01-20T07:45:48.757Z,101096.72
2023-01-20T07:48:16.755Z,101082.13
2023-01-20T07:50:44.646Z,101104.06
2023-01-20T07:53:12.816Z,101112.44
2023-01-20T07:55:42.098Z,101105.50
2023-01-20T07:58:09.922Z,101115.69
2023-01-20T08:00:38.428Z,101124.31
2023-01-20T08:03:06.312Z,101127.66
2023-01-20T08:05:34.111Z,101129.44
2023-01-20T08:08:02.145Z,101131.38
2023-01-20T08:10:30.131Z,101136.25
2023-01-20T08:12:59.859Z,101118.78
2023-01-20T08:15:27.868Z,101150.75
2023-01-20T08:17:55.996Z,101133.94
2023-01-20T08:20:23.924Z,101156.50
2023-01-20T08:22:52.167Z,101099.41
2023-01-20T08:25:20.078Z,101156.69
2023-01-20T08:27:50.111Z,101160.75
2023-01-20T08:30:20.176Z,101145.19
2023-01-20T08:32:48.048Z,101138.84
2023-01-20T08:35:16.505Z,101168.94
2023-01-20T08:37:44.942Z,101134.03
2023-01-20T08:40:13.593Z,101178.84
2023-01-20T08:42:41.474Z,101184.72
2023-01-20T08:45:10.824Z,101183.63
2023-01-20T08:47:46.021Z,101181.84
2023-01-20T08:50:16.091Z,101188.22
2023-01-20T08:52:44.239Z,101187.66
2023-01-20T08:55:12.677Z,101192.25
2023-01-20T08:57:40.931Z,101205.38
2023-01-20T09:00:11.016Z,101203.16
2023-01-20T09:02:41.018Z,101204.28
2023-01-20T09:05:10.212Z,101213.13
2023-01-20T09:07:38.127Z,101178.25
2023-01-20T09:10:07.513Z,101222.13
2023-01-20T09:12:35.630Z,101183.75
2023-01-20T09:15:07.580Z,101224.03
2023-01-20T09:17:36.328Z,101234.91
2023-01-20T09:20:06.194Z,101234.34
2023-01-20T09:22:34.081Z,101243.09
2023-01-20T09:25:02.634Z,101184.97
2023-01-20T09:27:30.474Z,101246.16
2023-01-20T09:29:58.455Z,101242.31
2023-01-20T09:32:26.320Z,101234.59
2023-01-20T09:34:54.217Z,101261.41
2023-01-20T09:37:41.172Z,101224.47
2023-01-20T09:40:30.834Z,101259.06
2023-01-20T09:43:29.941Z,101262.31
2023-01-20T09:46:02.354Z,101242.66
2023-01-20T09:48:57.286Z,101264.66
2023-01-20T09:51:50.835Z,101269.16
2023-01-20T09:54:26.813Z,101271.97
2023-01-20T09:56:57.511Z,101244.91
2023-01-20T09:59:29.323Z,101285.31
2023-01-20T10:01:59.091Z,101289.16
2023-01-20T10:04:34.025Z,101288.59
2023-01-20T10:07:10.020Z,101271.75
2023-01-20T10:09:45.563Z,101296.78
2023-01-20T10:12:18.902Z,101297.00
2023-01-20T10:14:54.490Z,101302.50
2023-01-20T10:17:28.984Z,101305.31
2023-01-20T10:20:04.257Z,101312.50
2023-01-20T10:22:37.692Z,101313.63
2023-01-20T10:25:13.822Z,101317.31
2023-01-20T10:27:51.495Z,101305.06
2023-01-20T10:30:23.179Z,101270.72
2023-01-20T10:32:58.398Z,101322.91
2023-01-20T10:35:27.964Z,101320.44
2023-01-20T10:37:58.570Z,101320.56
2023-01-20T10:40:35.453Z,101282.84
2023-01-20T10:43:11.942Z,101316.19
2023-01-20T10:45:57.601Z,101327.75
2023-01-20T10:48:40.854Z,101326.06
2023-01-20T10:51:14.289Z,101332.22
2023-01-20T10:54:07.278Z,101335.81
2023-01-20T10:56:45.104Z,101339.53
2023-01-20T10:59:19.042Z,101346.50
2023-01-20T11:02:02.475Z,101344.03
2023-01-20T11:04:41.375Z,101348.63
2023-01-20T11:07:16.499Z,101351.31
2023-01-20T11:09:44.699Z,101353.09
2023-01-20T11:12:17.084Z,101351.53
2023-01-20T11:14:45.401Z,101360.41
2023-01-20T11:17:16.996Z,101365.00
2023-01-20T11:19:51.868Z,101360.16
2023-01-20T11:22:27.605Z,101363.75
2023-01-20T11:24:59.347Z,101369.94
2023-01-20T11:27:33.185Z,101374.53
2023-01-20T11:30:05.282Z,101369.47
2023-01-20T11:32:36.968Z,101374.63
2023-01-20T11:35:22.005Z,101372.16
2023-01-20T11:37:50.094Z,101381.72
2023-01-20T11:40:22.706Z,101309.09
2023-01-20T11:42:54.246Z,101388.91
2023-01-20T11:45:28.896Z,101392.59
2023-01-20T11:48:03.325Z,101379.34
2023-01-20T11:50:38.564Z,101395.41
2023-01-20T11:53:17.529Z,101397.41
2023-01-20T11:55:50.537Z,101399.22
2023-01-20T11:58:22.646Z,101407.31
2023-01-20T12:00:53.030Z,101407.41
2023-01-20T12:03:57.697Z,101386.97
2023-01-20T12:06:29.170Z,101420.00
2023-01-20T12:09:02.306Z,101420.09
2023-01-20T12:11:33.510Z,101397.41
2023-01-20T12:14:28.638Z,101425.59
2023-01-20T12:17:04.740Z,101429.97
2023-01-20T12:19:41.879Z,101421.53
2023-01-20T12:22:14.777Z,101430.63
2023-01-20T12:25:13.178Z,101438.72
2023-01-20T12:27:48.555Z,101435.53
2023-01-20T12:30:52.035Z,101394.22
2023-01-20T12:33:25.318Z,101433.53
2023-01-20T12:36:26.113Z,101460.06
2023-01-20T12:39:18.601Z,101455.69
2023-01-20T12:42:15.291Z,101465.25
2023-01-20T12:44:47.837Z,101462.66
2023-01-20T12:47:26.028Z,101468.84
2023-01-20T12:50:14.350Z,101460.63
2023-01-20T12:52:53.742Z,101482.00
2023-01-20T12:55:33.961Z,101480.19
2023-01-20T12:58:18.927Z,101482.78
2023-01-20T13:01:10.521Z,101477.75
2023-01-20T13:04:05.011Z,101498.00
2023-01-20T13:06:42.997Z,101493.06
2023-01-20T13:09:38.110Z,101491.25
2023-01-20T13:12:23.289Z,101508.91
2023-01-20T13:14:59.752Z,101513.09
2023-01-20T13:17:34.307Z,101527.50
2023-01-20T13:20:05.872Z,101522.34
2023-01-20T13:22:36.003Z,101532.13
2023-01-20T13:25:04.928Z,101537.75
2023-01-20T13:27:36.783Z,101532.38
2023-01-20T13:30:08.406Z,101540.13
2023-01-20T13:32:38.193Z,101541.59
2023-01-20T13:35:43.411Z,101481.22
2023-01-20T13:38:21.352Z,101547.22
2023-01-20T13:40:52.562Z,101519.22
2023-01-20T13:43:47.964Z,101579.03
2023-01-20T13:46:39.297Z,101579.69
2023-01-20T13:49:26.099Z,101569.53
2023-01-20T13:51:54.152Z,101573.22
2023-01-20T13:54:48.962Z,101590.66
2023-01-20T13:57:36.998Z,101586.56
2023-01-20T14:00:21.091Z,101528.50
2023-01-20T14:02:50.670Z,101592.84
2023-01-20T14:05:24.175Z,101602.09
2023-01-20T14:07:52.095Z,101603.09
2023-01-20T14:10:21.378Z,101605.78
2023-01-20T14:12:49.314Z,101609.41
2023-01-20T14:15:33.919Z,101560.69
2023-01-20T14:18:02.491Z,101603.25
2023-01-20T14:20:31.313Z,101605.41
2023-01-20T14:23:37.681Z,101576.28
2023-01-20T14:26:12.857Z,101587.94
2023-01-20T14:28:50.059Z,101611.81
2023-01-20T14:31:24.186Z,101577.94
2023-01-20T14:33:57.848Z,101631.38
2023-01-20T14:36:27.786Z,101638.88
2023-01-20T14:38:58.815Z,101646.41
2023-01-20T14:41:31.604Z,101648.88
2023-01-20T14:44:00.227Z,101654.03
2023-01-20T14:46:29.762Z,101657.63
2023-01-20T14:48:58.660Z,101655.19
2023-01-20T14:51:26.974Z,101636.56
2023-01-20T14:54:30.058Z,101671.16
2023-01-20T14:57:00.334Z,101672.59
2023-01-20T14:59:28.469Z,101669.13
2023-01-20T15:02:01.954Z,101684.19
2023-01-20T15:04:36.653Z,101676.75
2023-01-20T15:07:05.677Z,101690.56
2023-01-20T15:09:35.668Z,101706.44
2023-01-20T15:12:46.107Z,101702.72
2023-01-20T15:15:31.536Z,101716.84
2023-01-20T15:18:23.556Z,101726.81
2023-01-20T15:21:03.824Z,101733.56
2023-01-20T15:23:38.416Z,101724.66
2023-01-20T15:26:11.551Z,101741.44
2023-01-20T15:28:43.889Z,101757.97
2023-01-20T15:31:16.060Z,101742.34
2023-01-20T15:33:44.326Z,101748.41
2023-01-20T15:36:24.484Z,101762.06
2023-01-20T15:38:52.610Z,101746.47
2023-01-20T15:41:20.657Z,101770.03
2023-01-20T15:43:51.435Z,101737.72
2023-01-20T15:46:21.592Z,101781.28
2023-01-20T15:48:49.633Z,101784.66
2023-01-20T15:51:20.428Z,101769.09
2023-01-20T15:53:48.973Z,101791.63
2023-01-20T15:56:20.652Z,101801.97
2023-01-20T15:58:48.792Z,101805.34
2023-01-20T16:01:20.242Z,101807.00
2023-01-20T16:03:51.497Z,101818.25
2023-01-20T16:06:21.226Z,101793.91
2023-01-20T16:08:51.214Z,101824.56
2023-01-20T16:11:20.707Z,101831.53
2023-01-20T16:13:48.602Z,101836.84
2023-01-20T16:16:18.471Z,101844.72
2023-01-20T16:18:46.830Z,101837.38
2023-01-20T16:21:18.238Z,101796.78
2023-01-20T16:23:46.510Z,101833.78
2023-01-20T16:26:22.405Z,101852.06
2023-01-20T16:28:50.495Z,101866.91
2023-01-20T16:31:19.441Z,101854.41
2023-01-20T16:33:47.629Z,101871.41
2023-01-20T16:36:19.104Z,101875.81
2023-01-20T16:38:47.472Z,101878.53
2023-01-20T16:41:18.783Z,101886.28
2023-01-20T16:43:46.817Z,101887.31
2023-01-20T16:46:15.603Z,101889.00
2023-01-20T16:48:43.883Z,101894.69
2023-01-20T16:51:14.143Z,101910.56
2023-01-20T16:53:43.551Z,101896.13
2023-01-20T16:56:17.999Z,101890.47
2023-01-20T16:58:48.612Z,101914.72
2023-01-20T17:01:21.229Z,101923.38
2023-01-20T17:03:49.641Z,101925.97
2023-01-20T17:06:19.492Z,101929.59
2023-01-20T17:08:50.771Z,101914.53
2023-01-20T17:11:19.372Z,101940.34
2023-01-20T17:13:47.945Z,101948.47
2023-01-20T17:16:16.691Z,101951.94
2023-01-20T17:18:45.714Z,101960.50
2023-01-20T17:21:14.858Z,101950.44
2023-01-20T17:23:43.340Z,101966.69
2023-01-20T17:26:12.640Z,101968.50
2023-01-20T17:28:40.478Z,101973.66
2023-01-20T17:31:08.478Z,101977.94
2023-01-20T17:33:36.340Z,101991.00
2023-01-20T17:36:06.074Z,101985.81
2023-01-20T17:38:37.687Z,101992.81
2023-01-20T17:41:06.504Z,101992.81
2023-01-20T17:43:37.324Z,101999.53
2023-01-20T17:46:13.873Z,102010.00
2023-01-20T17:48:41.774Z,102008.31
2023-01-20T17:51:10.904Z,102017.75
2023-01-20T17:53:39.082Z,101983.41
2023-01-20T17:56:12.691Z,102018.78
2023-01-20T17:58:44.083Z,101996.47
2023-01-20T18:01:13.932Z,102019.19
2023-01-20T18:03:43.425Z,102044.91
2023-01-20T18:06:12.521Z,102034.56
2023-01-20T18:08:41.079Z,102042.44
2023-01-20T18:11:11.392Z,102025.66
2023-01-20T18:13:39.821Z,102056.28
2023-01-20T18:16:12.440Z,102053.81
2023-01-20T18:18:40.664Z,102018.31
2023-01-20T18:21:10.299Z,102022.06
2023-01-20T18:23:39.326Z,102071.66
2023-01-20T18:26:08.682Z,102067.16
2023-01-20T18:28:37.084Z,102077.38
2023-01-20T18:31:09.183Z,102080.59
2023-01-20T18:33:41.126Z,102082.16
2023-01-20T18:36:13.714Z,102086.94
2023-01-20T18:38:43.597Z,102090.97
2023-01-20T18:41:12.084Z,102085.53
2023-01-20T18:43:40.006Z,102092.66
2023-01-20T18:46:08.551Z,102107.25
2023-01-20T18:48:40.428Z,102107.78
2023-01-20T18:51:10.987Z,102117.75
2023-01-20T18:53:39.114Z,102116.06
2023-01-20T18:56:09.236Z,102105.31
2023-01-20T18:58:39.078Z,102129.63
2023-01-20T19:01:08.851Z,102141.09
2023-01-20T19:03:38.128Z,102143.03
2023-01-20T19:06:11.016Z,102153.75
2023-01-20T19:08:39.379Z,102144.94
2023-01-20T19:11:09.864Z,102165.84
2023-01-20T19:13:37.993Z,102157.72
2023-01-20T19:16:10.251Z,102144.63
2023-01-20T19:18:38.880Z,102098.69
2023-01-20T19:21:09.951Z,102039.44
2023-01-20T19:23:38.018Z,102178.84
2023-01-20T19:26:07.962Z,102165.88
2023-01-20T19:28:36.549Z,102178.28
2023-01-20T19:31:06.399Z,102159.66
2023-01-20T19:33:34.809Z,102182.38
2023-01-20T19:36:04.050Z,102201.75
2023-01-20T19:38:34.334Z,102205.38
2023-01-20T19:41:06.178Z,102169.91
2023-01-20T19:43:34.057Z,102216.75
2023-01-20T19:46:03.442Z,102215.84
2023-01-20T19:48:32.613Z,102197.31
2023-01-20T19:51:04.118Z,102225.00
2023-01-20T19:53:34.232Z,102158.31
2023-01-20T19:56:03.040Z,102236.44
2023-01-20T19:58:31.070Z,102231.78
2023-01-20T20:01:07.291Z,102244.69
2023-01-20T20:03:36.143Z,102213.31
2023-01-20T20:06:04.844Z,102235.41
2023-01-20T20:08:36.414Z,102264.28
2023-01-20T20:11:04.616Z,102273.22
2023-01-20T20:13:32.615Z,102284.88
2023-01-20T20:16:09.156Z,102292.13
2023-01-20T20:18:37.797Z,102296.78
2023-01-20T20:21:06.824Z,102305.84
2023-01-20T20:23:36.151Z,102306.13
2023-01-20T20:26:04.022Z,102310.03
2023-01-20T20:28:31.927Z,102316.53
2023-01-20T20:31:06.123Z,102319.50
2023-01-20T20:33:34.359Z,102301.78
2023-01-20T20:36:06.759Z,102327.81
2023-01-20T20:38:36.775Z,102324.53
2023-01-20T20:41:07.858Z,102340.72
2023-01-20T20:43:36.099Z,102351.06
2023-01-20T20:46:05.488Z,102342.63
2023-01-20T20:48:34.650Z,102337.03
2023-01-20T20:51:06.302Z,102358.13
2023-01-20T20:53:35.654Z,102338.31
2023-01-20T20:56:07.926Z,102303.28
2023-01-20T20:58:35.903Z,102382.53
2023-01-20T21:01:06.619Z,102385.00
2023-01-20T21:03:36.612Z,102388.47
2023-01-20T21:06:05.221Z,102378.09
2023-01-20T21:08:33.083Z,102398.81
2023-01-20T21:11:03.092Z,102401.53
2023-01-20T21:13:31.724Z,102411.09
2023-01-20T21:16:03.624Z,102408.09
2023-01-20T21:18:33.386Z,102391.84
2023-01-20T21:21:02.760Z,102433.28
2023-01-20T21:23:32.454Z,102441.94
2023-01-20T21:26:03.498Z,102444.69
2023-01-20T21:28:34.413Z,102446.50
2023-01-20T21:31:02.892Z,102438.31
2023-01-20T21:33:31.017Z,102415.06
2023-01-20T21:35:58.874Z,102459.28
2023-01-20T21:38:26.831Z,102468.84
2023-01-20T21:41:03.455Z,102460.31
2023-01-20T21:43:55.192Z,102463.03
2023-01-20T21:46:23.760Z,102471.41
2023-01-20T21:49:09.559Z,102480.97
2023-01-20T21:51:54.764Z,102353.59
2023-01-20T21:54:22.861Z,102489.63
2023-01-20T21:56:52.472Z,102464.06
2023-01-20T21:59:21.951Z,102496.00
2023-01-20T22:01:50.030Z,102508.78
2023-01-20T22:04:18.261Z,102517.44
2023-01-20T22:06:46.707Z,102522.59
2023-01-20T22:09:14.846Z,102528.53
2023-01-20T22:11:42.720Z,102525.03
2023-01-20T22:14:11.162Z,102530.19
2023-01-20T22:16:40.775Z,102531.25
2023-01-20T22:19:08.685Z,102523.69
2023-01-20T22:21:36.598Z,102533.84
2023-01-20T22:24:04.787Z,102545.22
2023-01-20T22:26:32.659Z,102535.22
2023-01-20T22:29:00.556Z,102550.25
2023-01-20T22:31:30.186Z,102552.69
2023-01-20T22:34:04.144Z,102515.56
2023-01-20T22:36:32.349Z,102559.66
2023-01-20T22:39:00.499Z,102564.97
2023-01-20T22:41:28.793Z,102575.47
2023-01-20T22:43:56.974Z,102553.50
2023-01-20T22:46:27.088Z,102572.59
2023-01-20T22:48:57.305Z,102581.69
2023-01-20T22:51:28.521Z,102552.16
2023-01-20T22:53:57.907Z,102596.41
2023-01-20T22:56:27.896Z,102604.16
2023-01-20T22:58:56.543Z,102582.19
2023-01-20T23:01:26.640Z,102611.91
2023-01-20T23:03:55.967Z,102623.78
2023-01-20T23:06:24.920Z,102563.81
2023-01-20T23:08:54.462Z,102595.34
2023-01-20T23:11:24.160Z,102627.78
2023-01-20T23:13:53.299Z,102636.00
2023-01-20T23:16:23.324Z,102640.13
2023-01-20T23:18:52.648Z,102633.31
2023-01-20T23:21:21.086Z,102642.69
2023-01-20T23:23:54.803Z,102605.56
2023-01-20T23:26:25.793Z,102640.88
2023-01-20T23:28:55.346Z,102603.59
2023-01-20T23:31:24.653Z,102639.22
2023-01-20T23:33:54.633Z,102643.47
2023-01-20T23:36:24.606Z,102649.41
2023-01-20T23:38:54.697Z,102639.38
2023-01-20T23:41:24.320Z,102668.81
2023-01-20T23:43:52.348Z,102672.78
2023-01-20T23:46:21.628Z,102677.06
2023-01-20T23:48:49.647Z,102685.13
2023-01-20T23:51:17.657Z,102683.03
2023-01-20T23:53:45.746Z,102690.47
2023-01-20T23:56:16.318Z,102688.06
2023-01-20T23:58:46.019Z,102692.91
